sensor_id;sensor_type;location;lat;lon;timestamp;pressure;altitude;pressure_sealevel;temperature;humidity
39769;BME280;38939;47.824;14.642;2023-11-19T00:00:38;97227.16;;;3.70;89.96
39769;BME280;38939;47.824;14.642;2023-11-19T00:01:40;97219.84;;;3.65;90.29
39769;BME280;38939;47.824;14.642;2023-11-19T00:02:42;97224.59;;;3.70;90.51
39769;BME280;38939;47.824;14.642;2023-11-19T00:03:44;97214.75;;;3.73;90.93
39769;BME280;38939;47.824;14.642;2023-11-19T00:04:48;97215.41;;;3.75;90.97
39769;BME280;38939;47.824;14.642;2023-11-19T00:05:50;97204.81;;;3.78;91.14
39769;BME280;38939;47.824;14.642;2023-11-19T00:06:52;97204.47;;;3.81;91.10
39769;BME280;38939;47.824;14.642;2023-11-19T00:07:54;97207.25;;;3.80;91.06
39769;BME280;38939;47.824;14.642;2023-11-19T00:08:56;97208.03;;;3.80;91.44
39769;BME280;38939;47.824;14.642;2023-11-19T00:09:58;97209.44;;;3.75;91.19
39769;BME280;38939;47.824;14.642;2023-11-19T00:10:59;97207.31;;;3.70;91.56
39769;BME280;38939;47.824;14.642;2023-11-19T00:12:03;97213.81;;;3.74;91.71
39769;BME280;38939;47.824;14.642;2023-11-19T00:13:05;97208.00;;;3.72;91.08
39769;BME280;38939;47.824;14.642;2023-11-19T00:14:08;97202.38;;;3.77;91.51
39769;BME280;38939;47.824;14.642;2023-11-19T00:15:10;97199.31;;;3.81;91.60
39769;BME280;38939;47.824;14.642;2023-11-19T00:16:14;97205.09;;;3.75;91.50
39769;BME280;38939;47.824;14.642;2023-11-19T00:17:18;97190.53;;;3.66;90.73
39769;BME280;38939;47.824;14.642;2023-11-19T00:18:20;97188.69;;;3.58;91.12
39769;BME280;38939;47.824;14.642;2023-11-19T00:19:22;97184.66;;;3.56;91.08
39769;BME280;38939;47.824;14.642;2023-11-19T00:20:24;97180.81;;;3.60;91.77
39769;BME280;38939;47.824;14.642;2023-11-19T00:21:26;97178.22;;;3.60;91.68
39769;BME280;38939;47.824;14.642;2023-11-19T00:22:30;97175.50;;;3.62;91.79
39769;BME280;38939;47.824;14.642;2023-11-19T00:23:32;97174.03;;;3.59;92.15
39769;BME280;38939;47.824;14.642;2023-11-19T00:24:34;97170.34;;;3.62;92.38
39769;BME280;38939;47.824;14.642;2023-11-19T00:25:36;97168.25;;;3.65;91.88
39769;BME280;38939;47.824;14.642;2023-11-19T00:26:38;97164.88;;;3.65;92.15
39769;BME280;38939;47.824;14.642;2023-11-19T00:27:40;97152.78;;;3.65;92.27
39769;BME280;38939;47.824;14.642;2023-11-19T00:28:42;97156.31;;;3.64;92.55
39769;BME280;38939;47.824;14.642;2023-11-19T00:29:45;97153.59;;;3.66;92.57
39769;BME280;38939;47.824;14.642;2023-11-19T00:30:48;97154.34;;;3.58;91.87
39769;BME280;38939;47.824;14.642;2023-11-19T00:31:49;97143.66;;;3.53;92.15
39769;BME280;38939;47.824;14.642;2023-11-19T00:32:52;97136.91;;;3.52;92.63
39769;BME280;38939;47.824;14.642;2023-11-19T00:33:53;97139.91;;;3.47;92.39
39769;BME280;38939;47.824;14.642;2023-11-19T00:34:55;97138.59;;;3.43;93.05
39769;BME280;38939;47.824;14.642;2023-11-19T00:35:57;97135.59;;;3.48;93.25
39769;BME280;38939;47.824;14.642;2023-11-19T00:36:59;97130.44;;;3.48;93.02
39769;BME280;38939;47.824;14.642;2023-11-19T00:38:01;97133.28;;;3.45;93.11
39769;BME280;38939;47.824;14.642;2023-11-19T00:39:04;97136.69;;;3.45;93.05
39769;BME280;38939;47.824;14.642;2023-11-19T00:40:07;97137.50;;;3.46;93.59
39769;BME280;38939;47.824;14.642;2023-11-19T00:41:09;97135.34;;;3.41;93.13
39769;BME280;38939;47.824;14.642;2023-11-19T00:42:11;97133.25;;;3.36;93.64
39769;BME280;38939;47.824;14.642;2023-11-19T00:43:13;97131.63;;;3.35;93.28
39769;BME280;38939;47.824;14.642;2023-11-19T00:44:15;97121.94;;;3.29;93.67
39769;BME280;38939;47.824;14.642;2023-11-19T00:45:17;97116.41;;;3.24;93.32
39769;BME280;38939;47.824;14.642;2023-11-19T00:46:19;97117.19;;;3.25;93.73
39769;BME280;38939;47.824;14.642;2023-11-19T00:47:21;97115.78;;;3.30;94.25
39769;BME280;38939;47.824;14.642;2023-11-19T00:48:23;97111.66;;;3.37;94.48
39769;BME280;38939;47.824;14.642;2023-11-19T00:49:25;97110.69;;;3.38;94.27
39769;BME280;38939;47.824;14.642;2023-11-19T00:50:27;97116.44;;;3.32;94.08
39769;BME280;38939;47.824;14.642;2023-11-19T00:51:29;97110.63;;;3.30;94.42
39769;BME280;38939;47.824;14.642;2023-11-19T00:52:33;97105.00;;;3.35;94.16
39769;BME280;38939;47.824;14.642;2023-11-19T00:53:35;97099.44;;;3.39;94.55
39769;BME280;38939;47.824;14.642;2023-11-19T00:54:37;97095.22;;;3.38;94.58
39769;BME280;38939;47.824;14.642;2023-11-19T00:55:38;97101.34;;;3.37;94.62
39769;BME280;38939;47.824;14.642;2023-11-19T00:56:43;97102.28;;;3.36;94.16
39769;BME280;38939;47.824;14.642;2023-11-19T00:57:49;97098.78;;;3.37;94.50
39769;BME280;38939;47.824;14.642;2023-11-19T00:58:51;97095.44;;;3.27;94.33
39769;BME280;38939;47.824;14.642;2023-11-19T00:59:53;97096.06;;;3.21;94.54
39769;BME280;38939;47.824;14.642;2023-11-19T01:00:55;97102.69;;;3.24;94.67
39769;BME280;38939;47.824;14.642;2023-11-19T01:01:59;97100.59;;;3.27;94.69
39769;BME280;38939;47.824;14.642;2023-11-19T01:03:05;97100.59;;;3.27;94.66
39769;BME280;38939;47.824;14.642;2023-11-19T01:04:09;97101.97;;;3.31;94.72
39769;BME280;38939;47.824;14.642;2023-11-19T01:05:11;97092.94;;;3.35;94.25
39769;BME280;38939;47.824;14.642;2023-11-19T01:06:26;97088.59;;;3.36;94.31
39769;BME280;38939;47.824;14.642;2023-11-19T01:07:28;97085.22;;;3.35;93.92
39769;BME280;38939;47.824;14.642;2023-11-19T01:08:30;97087.44;;;3.30;94.14
39769;BME280;38939;47.824;14.642;2023-11-19T01:09:32;97088.84;;;3.25;93.83
39769;BME280;38939;47.824;14.642;2023-11-19T01:10:36;97095.25;;;3.20;93.70
39769;BME280;38939;47.824;14.642;2023-11-19T01:11:39;97100.28;;;3.22;93.72
39769;BME280;38939;47.824;14.642;2023-11-19T01:12:41;97093.47;;;3.21;94.36
39769;BME280;38939;47.824;14.642;2023-11-19T01:13:44;97088.78;;;3.16;94.17
39769;BME280;38939;47.824;14.642;2023-11-19T01:14:46;97087.97;;;3.16;93.91
39769;BME280;38939;47.824;14.642;2023-11-19T01:15:48;97089.16;;;3.22;94.62
39769;BME280;38939;47.824;14.642;2023-11-19T01:16:50;97085.75;;;3.21;94.59
39769;BME280;38939;47.824;14.642;2023-11-19T01:17:52;97076.09;;;3.23;94.81
39769;BME280;38939;47.824;14.642;2023-11-19T01:18:54;97072.38;;;3.17;94.72
39769;BME280;38939;47.824;14.642;2023-11-19T01:20:15;97077.81;;;3.14;94.38
39769;BME280;38939;47.824;14.642;2023-11-19T01:21:17;97081.44;;;3.04;94.56
39769;BME280;38939;47.824;14.642;2023-11-19T01:22:20;97079.53;;;3.06;94.45
39769;BME280;38939;47.824;14.642;2023-11-19T01:23:21;97078.88;;;3.04;94.33
39769;BME280;38939;47.824;14.642;2023-11-19T01:24:24;97071.13;;;3.04;94.87
39769;BME280;38939;47.824;14.642;2023-11-19T01:25:25;97070.47;;;3.02;94.39
39769;BME280;38939;47.824;14.642;2023-11-19T01:26:27;97073.78;;;2.94;94.61
39769;BME280;38939;47.824;14.642;2023-11-19T01:27:29;97067.25;;;2.82;95.26
39769;BME280;38939;47.824;14.642;2023-11-19T01:28:31;97071.69;;;2.89;95.44
39769;BME280;38939;47.824;14.642;2023-11-19T01:29:33;97066.22;;;2.92;95.21
39769;BME280;38939;47.824;14.642;2023-11-19T01:30:35;97061.06;;;2.92;95.51
39769;BME280;38939;47.824;14.642;2023-11-19T01:31:37;97059.72;;;2.88;95.83
39769;BME280;38939;47.824;14.642;2023-11-19T01:32:39;97064.38;;;2.85;95.48
39769;BME280;38939;47.824;14.642;2023-11-19T01:33:42;97065.03;;;2.87;95.95
39769;BME280;38939;47.824;14.642;2023-11-19T01:34:44;97058.78;;;2.89;96.24
39769;BME280;38939;47.824;14.642;2023-11-19T01:35:46;97058.19;;;2.95;96.23
39769;BME280;38939;47.824;14.642;2023-11-19T01:36:48;97057.44;;;3.03;96.02
39769;BME280;38939;47.824;14.642;2023-11-19T01:37:50;97062.00;;;3.09;95.88
39769;BME280;38939;47.824;14.642;2023-11-19T01:38:52;97056.38;;;3.14;96.38
39769;BME280;38939;47.824;14.642;2023-11-19T01:39:54;97061.75;;;3.20;96.02
39769;BME280;38939;47.824;14.642;2023-11-19T01:41:00;97061.06;;;3.18;96.11
39769;BME280;38939;47.824;14.642;2023-11-19T01:42:03;97061.75;;;3.20;95.85
39769;BME280;38939;47.824;14.642;2023-11-19T01:43:05;97059.63;;;3.16;95.64
39769;BME280;38939;47.824;14.642;2023-11-19T01:44:07;97061.16;;;3.09;95.81
39769;BME280;38939;47.824;14.642;2023-11-19T01:45:10;97055.34;;;3.07;95.97
39769;BME280;38939;47.824;14.642;2023-11-19T01:46:20;97058.91;;;3.06;96.09
39769;BME280;38939;47.824;14.642;2023-11-19T01:47:23;97057.00;;;3.08;95.86
39769;BME280;38939;47.824;14.642;2023-11-19T01:48:26;97057.66;;;3.10;95.91
39769;BME280;38939;47.824;14.642;2023-11-19T01:49:27;97056.00;;;3.09;95.91
39769;BME280;38939;47.824;14.642;2023-11-19T01:50:30;97051.50;;;3.11;96.48
39769;BME280;38939;47.824;14.642;2023-11-19T01:51:33;97048.28;;;3.09;95.93
39769;BME280;38939;47.824;14.642;2023-11-19T01:52:36;97044.25;;;3.06;96.20
39769;BME280;38939;47.824;14.642;2023-11-19T01:53:39;97046.16;;;3.04;96.62
39769;BME280;38939;47.824;14.642;2023-11-19T01:54:42;97042.47;;;3.07;96.77
39769;BME280;38939;47.824;14.642;2023-11-19T01:55:44;97035.50;;;2.99;96.93
39769;BME280;38939;47.824;14.642;2023-11-19T01:56:47;97042.72;;;2.95;96.90
39769;BME280;38939;47.824;14.642;2023-11-19T01:57:49;97038.09;;;2.99;97.30
39769;BME280;38939;47.824;14.642;2023-11-19T01:58:51;97029.38;;;3.00;97.12
39769;BME280;38939;47.824;14.642;2023-11-19T01:59:54;97033.13;;;3.06;97.29
39769;BME280;38939;47.824;14.642;2023-11-19T02:00:57;97024.44;;;3.07;96.82
39769;BME280;38939;47.824;14.642;2023-11-19T02:01:59;97032.66;;;3.10;97.05
39769;BME280;38939;47.824;14.642;2023-11-19T02:03:02;97027.50;;;3.10;96.98
39769;BME280;38939;47.824;14.642;2023-11-19T02:04:08;97027.06;;;3.15;97.25
39769;BME280;38939;47.824;14.642;2023-11-19T02:05:11;97029.94;;;3.12;97.20
39769;BME280;38939;47.824;14.642;2023-11-19T02:06:14;97031.91;;;3.18;97.33
39769;BME280;38939;47.824;14.642;2023-11-19T02:07:17;97025.63;;;3.20;97.30
39769;BME280;38939;47.824;14.642;2023-11-19T02:08:31;97030.00;;;3.20;97.07
39769;BME280;38939;47.824;14.642;2023-11-19T02:09:33;97018.06;;;3.19;97.30
39769;BME280;38939;47.824;14.642;2023-11-19T02:10:35;97014.00;;;3.16;97.47
39769;BME280;38939;47.824;14.642;2023-11-19T02:11:39;97000.47;;;3.14;97.20
39769;BME280;38939;47.824;14.642;2023-11-19T02:12:41;97008.72;;;3.18;97.08
39769;BME280;38939;47.824;14.642;2023-11-19T02:13:46;97002.16;;;3.24;97.01
39769;BME280;38939;47.824;14.642;2023-11-19T02:14:48;97003.47;;;3.28;97.74
39769;BME280;38939;47.824;14.642;2023-11-19T02:15:50;97001.97;;;3.25;97.36
39769;BME280;38939;47.824;14.642;2023-11-19T02:16:52;96998.59;;;3.25;97.57
39769;BME280;38939;47.824;14.642;2023-11-19T02:17:54;96995.72;;;3.28;97.36
39769;BME280;38939;47.824;14.642;2023-11-19T02:18:56;96995.72;;;3.28;97.71
39769;BME280;38939;47.824;14.642;2023-11-19T02:19:58;96990.41;;;3.29;97.78
39769;BME280;38939;47.824;14.642;2023-11-19T02:21:00;96990.91;;;3.33;97.69
39769;BME280;38939;47.824;14.642;2023-11-19T02:22:01;96985.28;;;3.37;97.77
39769;BME280;38939;47.824;14.642;2023-11-19T02:23:03;96982.72;;;3.37;97.56
39769;BME280;38939;47.824;14.642;2023-11-19T02:24:06;96993.38;;;3.43;97.53
39769;BME280;38939;47.824;14.642;2023-11-19T02:25:20;96983.69;;;3.45;97.71
39769;BME280;38939;47.824;14.642;2023-11-19T02:26:32;96979.19;;;3.47;97.57
39769;BME280;38939;47.824;14.642;2023-11-19T02:28:40;96986.59;;;3.42;97.18
39769;BME280;38939;47.824;14.642;2023-11-19T02:29:43;96984.31;;;3.38;96.91
39769;BME280;38939;47.824;14.642;2023-11-19T02:30:45;96987.25;;;3.44;97.12
39769;BME280;38939;47.824;14.642;2023-11-19T02:31:47;96979.19;;;3.47;97.25
39769;BME280;38939;47.824;14.642;2023-11-19T02:32:49;96976.63;;;3.47;96.98
39769;BME280;38939;47.824;14.642;2023-11-19T02:33:51;96973.53;;;3.43;97.01
39769;BME280;38939;47.824;14.642;2023-11-19T02:34:53;96976.94;;;3.44;97.22
39769;BME280;38939;47.824;14.642;2023-11-19T02:36:09;96969.53;;;3.49;96.74
39769;BME280;38939;47.824;14.642;2023-11-19T02:37:11;96976.31;;;3.50;96.94
39769;BME280;38939;47.824;14.642;2023-11-19T02:38:13;96973.25;;;3.54;96.81
39769;BME280;38939;47.824;14.642;2023-11-19T02:39:15;96962.63;;;3.57;96.80
39769;BME280;38939;47.824;14.642;2023-11-19T02:40:23;96968.28;;;3.61;96.89
39769;BME280;38939;47.824;14.642;2023-11-19T02:41:26;96975.53;;;3.57;96.69
39769;BME280;38939;47.824;14.642;2023-11-19T02:42:28;96964.41;;;3.57;96.75
39769;BME280;38939;47.824;14.642;2023-11-19T02:43:30;96961.38;;;3.62;96.82
39769;BME280;38939;47.824;14.642;2023-11-19T02:44:33;96965.69;;;3.61;96.83
39769;BME280;38939;47.824;14.642;2023-11-19T02:45:35;96964.59;;;3.64;96.41
39769;BME280;38939;47.824;14.642;2023-11-19T02:46:37;96955.09;;;3.64;96.66
39769;BME280;38939;47.824;14.642;2023-11-19T02:47:42;96954.75;;;3.67;96.70
39769;BME280;38939;47.824;14.642;2023-11-19T02:48:45;96957.47;;;3.57;96.58
39769;BME280;38939;47.824;14.642;2023-11-19T02:49:47;96959.88;;;3.51;96.62
39769;BME280;38939;47.824;14.642;2023-11-19T02:50:49;96951.00;;;3.53;96.51
39769;BME280;38939;47.824;14.642;2023-11-19T02:51:51;96960.03;;;3.57;96.69
39769;BME280;38939;47.824;14.642;2023-11-19T02:52:54;96967.47;;;3.60;96.44
39769;BME280;38939;47.824;14.642;2023-11-19T02:53:58;96956.00;;;3.55;96.51
39769;BME280;38939;47.824;14.642;2023-11-19T02:55:00;96947.63;;;3.53;96.24
39769;BME280;38939;47.824;14.642;2023-11-19T02:56:02;96957.63;;;3.56;96.44
39769;BME280;38939;47.824;14.642;2023-11-19T02:57:11;96952.16;;;3.59;96.52
39769;BME280;38939;47.824;14.642;2023-11-19T02:58:23;96947.34;;;3.64;96.63
39769;BME280;38939;47.824;14.642;2023-11-19T02:59:26;96949.28;;;3.62;96.67
39769;BME280;38939;47.824;14.642;2023-11-19T03:00:29;96948.28;;;3.63;96.50
39769;BME280;38939;47.824;14.642;2023-11-19T03:01:37;96949.13;;;3.64;96.33
39769;BME280;38939;47.824;14.642;2023-11-19T03:02:46;96952.94;;;3.59;96.58
39769;BME280;38939;47.824;14.642;2023-11-19T03:03:49;96949.53;;;3.51;96.46
39769;BME280;38939;47.824;14.642;2023-11-19T03:04:56;96938.59;;;3.57;97.17
39769;BME280;38939;47.824;14.642;2023-11-19T03:05:58;96939.09;;;3.60;96.76
39769;BME280;38939;47.824;14.642;2023-11-19T03:07:00;96947.66;;;3.61;96.68
39769;BME280;38939;47.824;14.642;2023-11-19T03:08:01;96947.13;;;3.57;97.31
39769;BME280;38939;47.824;14.642;2023-11-19T03:09:04;96945.72;;;3.63;96.87
39769;BME280;38939;47.824;14.642;2023-11-19T03:10:12;96947.34;;;3.64;96.87
39769;BME280;38939;47.824;14.642;2023-11-19T03:11:15;96942.63;;;3.59;96.79
39769;BME280;38939;47.824;14.642;2023-11-19T03:12:17;96944.75;;;3.56;97.01
39769;BME280;38939;47.824;14.642;2023-11-19T03:13:19;96936.81;;;3.57;96.91
39769;BME280;38939;47.824;14.642;2023-11-19T03:14:21;96935.41;;;3.63;96.86
39769;BME280;38939;47.824;14.642;2023-11-19T03:15:24;96932.81;;;3.63;96.74
39769;BME280;38939;47.824;14.642;2023-11-19T03:16:26;96942.63;;;3.59;97.05
39769;BME280;38939;47.824;14.642;2023-11-19T03:17:28;96937.19;;;3.63;96.69
39769;BME280;38939;47.824;14.642;2023-11-19T03:18:30;96929.94;;;3.66;96.97
39769;BME280;38939;47.824;14.642;2023-11-19T03:19:31;96928.94;;;3.67;96.91
39769;BME280;38939;47.824;14.642;2023-11-19T03:20:33;96925.91;;;3.64;96.47
39769;BME280;38939;47.824;14.642;2023-11-19T03:21:35;96926.34;;;3.59;96.89
39769;BME280;38939;47.824;14.642;2023-11-19T03:22:38;96917.66;;;3.60;96.98
39769;BME280;38939;47.824;14.642;2023-11-19T03:23:40;96917.97;;;3.65;97.03
39769;BME280;38939;47.824;14.642;2023-11-19T03:24:42;96921.06;;;3.69;96.54
39769;BME280;38939;47.824;14.642;2023-11-19T03:25:43;96911.53;;;3.61;96.82
39769;BME280;38939;47.824;14.642;2023-11-19T03:26:48;96915.41;;;3.65;96.85
39769;BME280;38939;47.824;14.642;2023-11-19T03:27:52;96917.66;;;3.60;97.06
39769;BME280;38939;47.824;14.642;2023-11-19T03:28:54;96921.03;;;3.60;96.76
39769;BME280;38939;47.824;14.642;2023-11-19T03:29:58;96921.41;;;3.66;97.13
39769;BME280;38939;47.824;14.642;2023-11-19T03:31:01;96925.09;;;3.71;97.08
39769;BME280;38939;47.824;14.642;2023-11-19T03:32:03;96926.06;;;3.62;96.91
39769;BME280;38939;47.824;14.642;2023-11-19T03:33:05;96921.19;;;3.59;97.09
39769;BME280;38939;47.824;14.642;2023-11-19T03:34:07;96907.50;;;3.58;97.14
39769;BME280;38939;47.824;14.642;2023-11-19T03:35:09;96909.94;;;3.60;97.20
39769;BME280;38939;47.824;14.642;2023-11-19T03:36:11;96917.34;;;3.63;96.98
39769;BME280;38939;47.824;14.642;2023-11-19T03:37:14;96912.19;;;3.63;97.13
39769;BME280;38939;47.824;14.642;2023-11-19T03:38:19;96917.34;;;3.63;97.41
39769;BME280;38939;47.824;14.642;2023-11-19T03:39:20;96919.75;;;3.65;97.27
39769;BME280;38939;47.824;14.642;2023-11-19T03:40:26;96913.31;;;3.60;97.16
39769;BME280;38939;47.824;14.642;2023-11-19T03:41:28;96918.63;;;3.59;97.00
39769;BME280;38939;47.824;14.642;2023-11-19T03:42:42;96913.31;;;3.60;97.66
39769;BME280;38939;47.824;14.642;2023-11-19T03:43:45;96913.66;;;3.66;97.57
39769;BME280;38939;47.824;14.642;2023-11-19T03:44:47;96908.97;;;3.69;97.61
39769;BME280;38939;47.824;14.642;2023-11-19T03:45:51;96913.97;;;3.71;97.79
39769;BME280;38939;47.824;14.642;2023-11-19T03:46:52;96923.16;;;3.73;97.51
39769;BME280;38939;47.824;14.642;2023-11-19T03:47:54;96912.53;;;3.76;97.69
39769;BME280;38939;47.824;14.642;2023-11-19T03:48:57;96907.88;;;3.80;97.37
39769;BME280;38939;47.824;14.642;2023-11-19T03:49:59;96910.59;;;3.78;97.50
39769;BME280;38939;47.824;14.642;2023-11-19T03:51:01;96908.31;;;3.75;97.45
39769;BME280;38939;47.824;14.642;2023-11-19T03:52:03;96910.25;;;3.73;97.20
39769;BME280;38939;47.824;14.642;2023-11-19T03:53:20;96904.44;;;3.71;97.16
39769;BME280;38939;47.824;14.642;2023-11-19T03:54:23;96910.09;;;3.75;97.36
39769;BME280;38939;47.824;14.642;2023-11-19T03:55:25;96913.03;;;3.72;97.26
39769;BME280;38939;47.824;14.642;2023-11-19T03:56:26;96906.72;;;3.74;97.43
39769;BME280;38939;47.824;14.642;2023-11-19T03:57:28;96905.94;;;3.74;97.36
39769;BME280;38939;47.824;14.642;2023-11-19T03:58:30;96908.66;;;3.72;97.38
39769;BME280;38939;47.824;14.642;2023-11-19T03:59:33;96904.16;;;3.74;97.58
39769;BME280;38939;47.824;14.642;2023-11-19T04:00:35;96891.41;;;3.73;97.59
39769;BME280;38939;47.824;14.642;2023-11-19T04:01:37;96894.47;;;3.76;97.37
39769;BME280;38939;47.824;14.642;2023-11-19T04:02:39;96903.16;;;3.75;97.36
39769;BME280;38939;47.824;14.642;2023-11-19T04:03:41;96906.72;;;3.74;97.31
39769;BME280;38939;47.824;14.642;2023-11-19T04:04:46;96876.72;;;3.73;97.54
39769;BME280;38939;47.824;14.642;2023-11-19T04:05:48;96875.44;;;3.77;97.13
39769;BME280;38939;47.824;14.642;2023-11-19T04:06:50;96881.88;;;3.81;97.50
39769;BME280;38939;47.824;14.642;2023-11-19T04:07:51;96885.28;;;3.82;97.48
39769;BME280;38939;47.824;14.642;2023-11-19T04:08:53;96876.41;;;3.85;97.44
39769;BME280;38939;47.824;14.642;2023-11-19T04:09:55;96875.63;;;3.84;97.02
39769;BME280;38939;47.824;14.642;2023-11-19T04:10:57;96877.06;;;3.78;97.09
39769;BME280;38939;47.824;14.642;2023-11-19T04:11:59;96867.53;;;3.79;96.82
39769;BME280;38939;47.824;14.642;2023-11-19T04:13:02;96863.34;;;3.78;97.22
39769;BME280;38939;47.824;14.642;2023-11-19T04:14:04;96862.72;;;3.76;97.09
39769;BME280;38939;47.824;14.642;2023-11-19T04:15:06;96868.19;;;3.73;97.14
39769;BME280;38939;47.824;14.642;2023-11-19T04:16:08;96858.34;;;3.68;96.98
39769;BME280;38939;47.824;14.642;2023-11-19T04:17:10;96859.28;;;3.67;97.28
39769;BME280;38939;47.824;14.642;2023-11-19T04:18:12;96854.63;;;3.71;97.45
39769;BME280;38939;47.824;14.642;2023-11-19T04:19:14;96861.88;;;3.75;97.41
39769;BME280;38939;47.824;14.642;2023-11-19T04:20:16;96859.16;;;3.77;97.17
39769;BME280;38939;47.824;14.642;2023-11-19T04:21:17;96856.25;;;3.80;97.18
39769;BME280;38939;47.824;14.642;2023-11-19T04:22:19;96858.66;;;3.81;97.35
39769;BME280;38939;47.824;14.642;2023-11-19T04:23:21;96851.75;;;3.82;96.98
39769;BME280;38939;47.824;14.642;2023-11-19T04:24:23;96848.34;;;3.81;97.15
39769;BME280;38939;47.824;14.642;2023-11-19T04:25:26;96850.28;;;3.79;97.05
39769;BME280;38939;47.824;14.642;2023-11-19T04:26:28;96850.44;;;3.78;96.83
39769;BME280;38939;47.824;14.642;2023-11-19T04:27:30;96835.63;;;3.80;96.91
39769;BME280;38939;47.824;14.642;2023-11-19T04:28:31;96832.41;;;3.78;96.91
39769;BME280;38939;47.824;14.642;2023-11-19T04:29:33;96839.31;;;3.77;96.64
39769;BME280;38939;47.824;14.642;2023-11-19T04:30:36;96835.78;;;3.78;97.22
39769;BME280;38939;47.824;14.642;2023-11-19T04:31:38;96824.81;;;3.76;96.69
39769;BME280;38939;47.824;14.642;2023-11-19T04:32:41;96825.94;;;3.82;96.94
39769;BME280;38939;47.824;14.642;2023-11-19T04:33:43;96834.47;;;3.83;97.20
39769;BME280;38939;47.824;14.642;2023-11-19T04:34:45;96828.34;;;3.84;96.89
39769;BME280;38939;47.824;14.642;2023-11-19T04:35:50;96825.13;;;3.81;96.84
39769;BME280;38939;47.824;14.642;2023-11-19T04:36:51;96827.69;;;3.81;96.65
39769;BME280;38939;47.824;14.642;2023-11-19T04:37:53;96826.59;;;3.84;97.09
39769;BME280;38939;47.824;14.642;2023-11-19T04:38:59;96828.81;;;3.87;97.25
39769;BME280;38939;47.824;14.642;2023-11-19T04:40:01;96827.03;;;3.88;97.17
39769;BME280;38939;47.824;14.642;2023-11-19T04:41:03;96832.84;;;3.81;97.15
39769;BME280;38939;47.824;14.642;2023-11-19T04:42:07;96820.28;;;3.78;96.81
39769;BME280;38939;47.824;14.642;2023-11-19T04:43:09;96820.59;;;3.75;96.66
39769;BME280;38939;47.824;14.642;2023-11-19T04:44:11;96822.06;;;3.70;96.79
39769;BME280;38939;47.824;14.642;2023-11-19T04:45:13;96824.47;;;3.71;96.95
39769;BME280;38939;47.824;14.642;2023-11-19T04:46:15;96824.81;;;3.76;97.23
39769;BME280;38939;47.824;14.642;2023-11-19T04:47:17;96822.06;;;3.70;96.91
39769;BME280;38939;47.824;14.642;2023-11-19T04:48:19;96824.16;;;3.66;96.98
39769;BME280;38939;47.824;14.642;2023-11-19T04:49:21;96824.00;;;3.68;97.15
39769;BME280;38939;47.824;14.642;2023-11-19T04:50:23;96827.03;;;3.71;97.22
39769;BME280;38939;47.824;14.642;2023-11-19T04:51:25;96811.91;;;3.68;97.28
39769;BME280;38939;47.824;14.642;2023-11-19T04:52:27;96809.63;;;3.65;97.38
39769;BME280;38939;47.824;14.642;2023-11-19T04:53:28;96811.41;;;3.65;97.47
39769;BME280;38939;47.824;14.642;2023-11-19T04:54:30;96808.97;;;3.63;97.85
39769;BME280;38939;47.824;14.642;2023-11-19T04:55:32;96814.78;;;3.65;97.99
39769;BME280;38939;47.824;14.642;2023-11-19T04:56:37;96820.28;;;3.62;97.52
39769;BME280;38939;47.824;14.642;2023-11-19T04:57:40;96812.22;;;3.65;97.57
39769;BME280;38939;47.824;14.642;2023-11-19T04:58:42;96813.50;;;3.69;97.86
39769;BME280;38939;47.824;14.642;2023-11-19T04:59:43;96820.59;;;3.67;97.75
39769;BME280;38939;47.824;14.642;2023-11-19T05:00:45;96815.44;;;3.67;97.96
39769;BME280;38939;47.824;14.642;2023-11-19T05:01:50;96815.63;;;3.66;97.54
39769;BME280;38939;47.824;14.642;2023-11-19T05:02:52;96811.91;;;3.68;97.88
39769;BME280;38939;47.824;14.642;2023-11-19T05:03:57;96816.72;;;3.71;97.61
39769;BME280;38939;47.824;14.642;2023-11-19T05:05:02;96824.47;;;3.71;97.88
39769;BME280;38939;47.824;14.642;2023-11-19T05:06:06;96818.34;;;3.72;97.98
39769;BME280;38939;47.824;14.642;2023-11-19T05:07:08;96813.19;;;3.72;97.81
39769;BME280;38939;47.824;14.642;2023-11-19T05:08:09;96812.69;;;3.77;98.25
39769;BME280;38939;47.824;14.642;2023-11-19T05:09:13;96816.09;;;3.77;98.19
39769;BME280;38939;47.824;14.642;2023-11-19T05:10:15;96823.50;;;3.80;98.02
39769;BME280;38939;47.824;14.642;2023-11-19T05:11:17;96821.88;;;3.79;98.16
39769;BME280;38939;47.824;14.642;2023-11-19T05:12:21;96819.78;;;3.83;97.89
39769;BME280;38939;47.824;14.642;2023-11-19T05:13:24;96822.22;;;3.85;97.89
39769;BME280;38939;47.824;14.642;2023-11-19T05:14:26;96814.31;;;3.86;97.74
39769;BME280;38939;47.824;14.642;2023-11-19T05:15:28;96820.78;;;3.82;97.65
39769;BME280;38939;47.824;14.642;2023-11-19T05:16:29;96831.91;;;3.83;97.70
39769;BME280;38939;47.824;14.642;2023-11-19T05:17:31;96826.09;;;3.80;97.96
39769;BME280;38939;47.824;14.642;2023-11-19T05:18:33;96819.00;;;3.83;97.98
39769;BME280;38939;47.824;14.642;2023-11-19T05:19:35;96819.31;;;3.79;97.87
39769;BME280;38939;47.824;14.642;2023-11-19T05:20:37;96818.00;;;3.84;98.36
39769;BME280;38939;47.824;14.642;2023-11-19T05:21:41;96815.63;;;3.82;97.96
39769;BME280;38939;47.824;14.642;2023-11-19T05:22:43;96810.91;;;3.86;98.33
39769;BME280;38939;47.824;14.642;2023-11-19T05:23:45;96815.91;;;3.87;98.45
39769;BME280;38939;47.824;14.642;2023-11-19T05:24:48;96812.38;;;3.88;98.67
39769;BME280;38939;47.824;14.642;2023-11-19T05:25:51;96810.13;;;3.77;98.38
39769;BME280;38939;47.824;14.642;2023-11-19T05:26:53;96812.53;;;3.78;98.50
39769;BME280;38939;47.824;14.642;2023-11-19T05:27:54;96817.88;;;3.77;98.44
39769;BME280;38939;47.824;14.642;2023-11-19T05:28:56;96811.91;;;3.76;98.45
39769;BME280;38939;47.824;14.642;2023-11-19T05:29:58;96808.53;;;3.76;98.47
39769;BME280;38939;47.824;14.642;2023-11-19T05:31:00;96809.81;;;3.72;98.43
39769;BME280;38939;47.824;14.642;2023-11-19T05:32:02;96811.25;;;3.74;98.83
39769;BME280;38939;47.824;14.642;2023-11-19T05:33:04;96812.22;;;3.73;98.71
39769;BME280;38939;47.824;14.642;2023-11-19T05:34:05;96810.28;;;3.75;98.86